Time;durP1;ratioP1;P1;durP2;ratioP2;P2;SDS_P1;SDS_P2;PMS_P1;PMS_P2;Temp;Humidity;BMP_temperature;BMP_pressure;BME280_temperature;BME280_humidity;BME280_pressure;Samples;Min_cycle;Max_cycle;Signal;HPM_P1;HPM_P2
2024/02/14 06:45:12;;;;;;;;;;;;;;;6.80;100.00;99539.16;4983320;27;4114581;-59
2024/02/14 06:47:38;;;;;;;;;;;;;;;6.81;100.00;99554.47;5130079;28;876;-58
2024/02/14 06:50:06;;;;;;;;;;;;;;;6.84;100.00;99537.22;5130033;27;824;-60
2024/02/14 06:52:33;;;;;;;;;;;;;;;6.84;100.00;99527.00;5129708;27;1917;-60
2024/02/14 06:54:59;;;;;;;;;;;;;;;6.88;100.00;99532.53;5129913;27;830;-58
2024/02/14 06:57:27;;;;;;;;;;;;;;;6.92;100.00;99547.09;5130014;27;858;-60
2024/02/14 06:59:53;;;;;;;;;;;;;;;6.97;100.00;99554.97;5129868;27;858;-60
2024/02/14 07:02:21;;;;;;;;;;;;;;;7.00;100.00;99542.41;5129736;27;826;-59
2024/02/14 07:04:47;;;;;;;;;;;;;;;7.02;100.00;99548.31;5129790;27;823;-59
2024/02/14 07:07:13;;;;;;;;;;;;;;;7.04;100.00;99568.75;5129589;27;831;-59
2024/02/14 07:09:40;;;;;;;;;;;;;;;7.07;100.00;99565.22;5129666;27;886;-59
2024/02/14 07:12:07;;;;;;;;;;;;;;;7.08;100.00;99541.28;5129565;27;854;-60
2024/02/14 07:14:33;;;;;;;;;;;;;;;7.08;100.00;99546.75;5129731;27;1889;-60
2024/02/14 07:17:00;;;;;;;;;;;;;;;7.07;100.00;99558.94;5129540;27;835;-60
2024/02/14 07:19:27;;;;;;;;;;;;;;;7.06;100.00;99563.66;5129460;27;894;-60
2024/02/14 07:21:53;;;;;;;;;;;;;;;7.05;100.00;99544.81;5129396;27;901;-60
2024/02/14 07:24:20;;;;;;;;;;;;;;;7.01;100.00;99546.75;5129253;27;867;-60
2024/02/14 07:26:47;;;;;;;;;;;;;;;7.04;100.00;99548.72;5128013;28;1277;-59
2024/02/14 07:29:13;;;;;;;;;;;;;;;7.03;100.00;99552.63;5129139;27;891;-59
2024/02/14 07:31:41;;;;;;;;;;;;;;;7.03;100.00;99589.16;5129339;27;957;-60
2024/02/14 07:34:08;;;;;;;;;;;;;;;7.08;100.00;99588.00;5129042;27;1917;-59
2024/02/14 07:36:34;;;;;;;;;;;;;;;7.09;100.00;99584.09;5129348;27;831;-59
2024/02/14 07:39:00;;;;;;;;;;;;;;;7.10;100.00;99586.44;5129231;27;885;-59
2024/02/14 07:41:27;;;;;;;;;;;;;;;7.21;100.00;99574.72;5129231;27;930;-60
2024/02/14 07:43:54;;;;;;;;;;;;;;;7.20;100.00;99579.44;5128916;27;1378;-60
2024/02/14 07:46:22;;;;;;;;;;;;;;;7.30;100.00;99575.16;5114881;28;1217;-60
2024/02/14 07:48:49;;;;;;;;;;;;;;;7.29;100.00;99603.81;5115428;28;827;-59
2024/02/14 07:51:15;;;;;;;;;;;;;;;7.34;100.00;99584.22;5115504;28;831;-59
2024/02/14 07:53:42;;;;;;;;;;;;;;;7.34;100.00;99596.00;5115293;28;1918;-58
2024/02/14 07:56:08;;;;;;;;;;;;;;;7.32;100.00;99592.06;5115120;28;894;-58
2024/02/14 07:58:35;;;;;;;;;;;;;;;7.29;100.00;99595.56;5115144;28;1235;-59
2024/02/14 08:01:03;;;;;;;;;;;;;;;7.31;100.00;99606.97;5115133;28;877;-58
2024/02/14 08:03:30;;;;;;;;;;;;;;;7.30;100.00;99619.94;5115175;28;843;-58
2024/02/14 08:05:57;;;;;;;;;;;;;;;7.21;100.00;99633.25;5115007;28;1193;-58
2024/02/14 08:08:26;;;;;;;;;;;;;;;7.24;100.00;99626.97;5114936;27;1320;-58
2024/02/14 08:10:54;;;;;;;;;;;;;;;7.32;100.00;99625.84;5114772;28;851;-58
2024/02/14 08:13:21;;;;;;;;;;;;;;;7.35;100.00;99632.53;5114690;28;1952;-59
2024/02/14 08:15:47;;;;;;;;;;;;;;;7.38;100.00;99645.50;5114722;28;867;-58
2024/02/14 08:18:14;;;;;;;;;;;;;;;7.36;100.00;99642.34;5114559;28;835;-58
2024/02/14 08:20:41;;;;;;;;;;;;;;;7.39;100.00;99649.03;5114581;28;906;-59
2024/02/14 08:23:08;;;;;;;;;;;;;;;7.44;100.00;99654.94;5114531;28;845;-58
2024/02/14 08:25:34;;;;;;;;;;;;;;;7.49;100.00;99642.78;5114556;28;847;-58
2024/02/14 08:28:01;;;;;;;;;;;;;;;7.46;100.00;99640.81;5114657;28;945;-58
2024/02/14 08:30:27;;;;;;;;;;;;;;;7.42;100.00;99642.75;5114871;28;795;-58
2024/02/14 08:32:54;;;;;;;;;;;;;;;7.46;100.00;99649.84;5114513;28;1945;-58
2024/02/14 08:35:21;;;;;;;;;;;;;;;7.56;100.00;99648.34;5114425;28;901;-58
2024/02/14 08:37:48;;;;;;;;;;;;;;;7.62;100.00;99638.56;5114487;28;846;-59
2024/02/14 08:40:14;;;;;;;;;;;;;;;7.70;100.00;99651.16;5114372;28;822;-59
2024/02/14 08:42:40;;;;;;;;;;;;;;;7.82;100.00;99646.50;5114188;28;1358;-59
2024/02/14 08:45:08;;;;;;;;;;;;;;;7.75;100.00;99653.53;5113881;28;1357;-59
2024/02/14 08:47:36;;;;;;;;;;;;;;;7.69;100.00;99637.78;5114449;28;1240;-59
2024/02/14 08:50:06;;;;;;;;;;;;;;;7.71;100.00;99643.69;5114102;27;823;-58
2024/02/14 08:52:33;;;;;;;;;;;;;;;7.82;100.00;99655.53;5113960;28;1913;-59
2024/02/14 08:54:59;;;;;;;;;;;;;;;7.74;100.00;99645.66;5113888;28;874;-59
2024/02/14 08:57:26;;;;;;;;;;;;;;;7.73;100.00;99633.09;5112792;28;803;-59
2024/02/14 08:59:53;;;;;;;;;;;;;;;7.80;100.00;99641.38;5114199;28;866;-59
2024/02/14 09:02:20;;;;;;;;;;;;;;;8.02;100.00;99627.66;5113784;28;897;-59
2024/02/14 09:04:47;;;;;;;;;;;;;;;8.09;100.00;99639.50;5113739;28;924;-59
2024/02/14 09:07:13;;;;;;;;;;;;;;;8.14;100.00;99650.13;5113921;28;898;-59
2024/02/14 09:09:40;;;;;;;;;;;;;;;8.12;100.00;99605.66;5113789;27;875;-59
2024/02/14 09:12:07;;;;;;;;;;;;;;;8.10;100.00;99632.81;5113884;28;847;-59
2024/02/14 09:46:14;;;;;;;;;;;;;;;8.64;100.00;99571.50;5527073;22;1656;-60
2024/02/14 09:48:44;;;;;;;;;;;;;;;8.61;100.00;99562.06;5031947;28;1355;-59
2024/02/14 09:51:13;;;;;;;;;;;;;;;8.67;100.00;99551.44;5032330;28;902;-59
2024/02/14 09:53:40;;;;;;;;;;;;;;;8.61;100.00;99572.31;5032065;28;2260;-59
2024/02/14 09:56:09;;;;;;;;;;;;;;;8.52;100.00;99556.19;5032357;28;811;-58
2024/02/14 09:58:36;;;;;;;;;;;;;;;8.57;100.00;99542.78;5032151;28;1047;-58
2024/02/14 10:01:04;;;;;;;;;;;;;;;8.61;100.00;99503.44;5032113;28;822;-59
2024/02/14 10:03:31;;;;;;;;;;;;;;;8.68;100.00;99556.53;5032195;28;903;-59
2024/02/14 10:05:58;;;;;;;;;;;;;;;8.70;98.84;99545.91;5032122;28;898;-58
2024/02/14 10:08:26;;;;;;;;;;;;;;;8.73;100.00;99560.88;5031825;28;907;-58
2024/02/14 10:10:52;;;;;;;;;;;;;;;8.73;97.93;99503.81;5031933;28;937;-59
2024/02/14 10:13:19;;;;;;;;;;;;;;;8.74;97.20;99549.44;5031954;28;1947;-58
2024/02/14 10:15:46;;;;;;;;;;;;;;;8.71;97.05;99536.47;5032066;28;884;-58
2024/02/14 10:18:14;;;;;;;;;;;;;;;8.64;96.28;99553.03;5031989;28;812;-58
2024/02/14 10:20:44;;;;;;;;;;;;;;;8.79;96.10;99491.19;5031800;28;907;-58
2024/02/14 10:23:12;;;;;;;;;;;;;;;8.76;94.59;99560.84;5032168;28;899;-59
2024/02/14 10:25:39;;;;;;;;;;;;;;;8.79;94.93;99568.34;5031775;28;860;-58
2024/02/14 10:28:08;;;;;;;;;;;;;;;8.75;93.94;99570.31;5031867;28;938;-59
2024/02/14 10:30:37;;;;;;;;;;;;;;;8.73;94.39;99555.38;5032115;28;866;-60
2024/02/14 10:33:04;;;;;;;;;;;;;;;8.91;92.78;99580.13;5031872;28;1890;-59
2024/02/14 10:35:31;;;;;;;;;;;;;;;9.05;91.52;99571.84;5031942;28;867;-58
2024/02/14 10:38:02;;;;;;;;;;;;;;;8.94;90.50;99573.81;5031716;28;1041;-58
2024/02/14 10:40:28;;;;;;;;;;;;;;;9.22;91.22;99552.88;5031758;28;792;-58
2024/02/14 10:42:57;;;;;;;;;;;;;;;9.54;87.65;99563.81;5031723;28;839;-60
2024/02/14 10:45:23;;;;;;;;;;;;;;;9.57;88.07;99568.50;5031779;28;865;-60
2024/02/14 10:47:51;;;;;;;;;;;;;;;9.35;85.14;99554.03;5056530;28;1429;-60
2024/02/14 10:50:21;;;;;;;;;;;;;;;9.24;86.98;99606.47;5071464;28;887;-58
2024/02/14 10:52:48;;;;;;;;;;;;;;;9.21;86.30;99579.66;5071435;28;1973;-59
2024/02/14 10:55:16;;;;;;;;;;;;;;;9.18;87.68;99606.06;5071514;28;898;-60
2024/02/14 10:57:43;;;;;;;;;;;;;;;9.35;86.38;99603.66;5071419;28;812;-60
2024/02/14 11:00:13;;;;;;;;;;;;;;;9.36;84.19;99586.69;5071341;28;883;-60
2024/02/14 11:02:40;;;;;;;;;;;;;;;9.18;86.13;99597.03;5071299;28;880;-60
2024/02/14 11:05:13;;;;;;;;;;;;;;;9.15;86.36;99617.91;5071405;28;847;-60
2024/02/14 11:07:43;;;;;;;;;;;;;;;9.24;84.76;99589.09;5071181;28;943;-59
2024/02/14 11:10:13;;;;;;;;;;;;;;;9.24;83.53;99592.69;5071539;28;827;-61
2024/02/14 11:12:40;;;;;;;;;;;;;;;9.35;82.42;99631.25;5071181;28;1878;-59
2024/02/14 11:15:10;;;;;;;;;;;;;;;9.23;82.50;99588.31;5071309;28;945;-60
2024/02/14 11:17:38;;;;;;;;;;;;;;;9.27;83.51;99607.63;5071119;28;927;-59
2024/02/14 11:20:14;;;;;;;;;;;;;;;9.29;84.01;99611.56;5072539;28;839;-61
2024/02/14 11:22:50;;;;;;;;;;;;;;;9.37;81.94;99580.00;5074900;28;875;-60
2024/02/14 11:25:16;;;;;;;;;;;;;;;9.36;82.05;99616.25;5075062;28;895;-60
2024/02/14 11:27:46;;;;;;;;;;;;;;;9.32;81.83;99596.19;5075094;28;890;-59
2024/02/14 11:30:12;;;;;;;;;;;;;;;9.46;84.02;99596.13;5074740;28;804;-59
2024/02/14 11:32:41;;;;;;;;;;;;;;;9.67;81.78;99611.81;5075111;28;1950;-59
2024/02/14 11:35:11;;;;;;;;;;;;;;;9.83;81.62;99619.63;5074711;28;859;-60
2024/02/14 11:37:37;;;;;;;;;;;;;;;10.07;77.71;99575.72;5074663;28;855;-60
2024/02/14 11:40:07;;;;;;;;;;;;;;;9.75;79.82;99629.94;5074820;28;922;-61
2024/02/14 11:42:33;;;;;;;;;;;;;;;9.73;80.80;99625.97;5074938;28;895;-61
2024/02/14 11:45:00;;;;;;;;;;;;;;;9.85;79.94;99636.56;5074632;28;930;-63
2024/02/14 11:47:27;;;;;;;;;;;;;;;9.93;79.67;99645.63;5074311;28;1277;-61
2024/02/14 11:49:54;;;;;;;;;;;;;;;10.06;79.08;99626.63;5074552;28;839;-60
2024/02/14 11:52:21;;;;;;;;;;;;;;;10.07;78.14;99664.06;5074577;28;824;-60
2024/02/14 11:54:50;;;;;;;;;;;;;;;9.80;80.50;99653.56;5074465;28;1910;-60
2024/02/14 11:57:18;;;;;;;;;;;;;;;9.74;80.37;99639.38;5074341;28;847;-59
2024/02/14 11:59:47;;;;;;;;;;;;;;;9.77;81.27;99648.84;5074340;28;906;-60
2024/02/14 12:02:14;;;;;;;;;;;;;;;9.75;81.55;99654.78;5074359;28;925;-60
2024/02/14 12:04:41;;;;;;;;;;;;;;;9.94;81.90;99677.56;5074204;28;1003;-60
2024/02/14 12:07:08;;;;;;;;;;;;;;;9.95;81.23;99665.34;5074251;28;820;-60
2024/02/14 12:09:34;;;;;;;;;;;;;;;9.92;80.87;99666.94;5074028;28;926;-61
2024/02/14 12:12:01;;;;;;;;;;;;;;;10.01;81.10;99672.00;5074469;28;879;-61
2024/02/14 12:14:29;;;;;;;;;;;;;;;10.04;79.16;99673.19;5073961;28;1952;-60
2024/02/14 12:17:06;;;;;;;;;;;;;;;9.96;80.15;99673.22;5073911;28;895;-61
2024/02/14 12:19:34;;;;;;;;;;;;;;;10.17;80.89;99672.31;5073996;28;839;-61
2024/02/14 12:22:01;;;;;;;;;;;;;;;10.42;78.29;99660.38;5073878;28;906;-61
2024/02/14 12:24:29;;;;;;;;;;;;;;;10.41;79.20;99665.09;5073966;28;878;-61
2024/02/14 12:26:55;;;;;;;;;;;;;;;10.20;79.99;99666.00;5073765;28;890;-61
2024/02/14 12:29:23;;;;;;;;;;;;;;;10.02;81.69;99666.06;5073805;28;938;-61
2024/02/14 12:31:50;;;;;;;;;;;;;;;9.88;84.41;99670.88;5073665;28;1028;-60
2024/02/14 12:34:18;;;;;;;;;;;;;;;9.77;87.45;99684.72;5073791;28;847;-61
2024/02/14 12:36:44;;;;;;;;;;;;;;;9.75;89.61;99667.75;5073640;28;839;-62
2024/02/14 12:39:12;;;;;;;;;;;;;;;9.75;87.82;99676.03;5073493;28;945;-61
2024/02/14 12:41:40;;;;;;;;;;;;;;;9.80;88.35;99694.97;5073505;28;950;-61
2024/02/14 12:44:07;;;;;;;;;;;;;;;9.83;88.75;99683.13;5073424;28;1917;-60
2024/02/14 12:46:33;;;;;;;;;;;;;;;9.72;90.31;99682.38;5073064;28;1386;-61
2024/02/14 12:49:00;;;;;;;;;;;;;;;9.59;89.39;99659.94;5073359;28;883;-60
2024/02/14 12:51:28;;;;;;;;;;;;;;;9.55;91.84;99689.53;5073400;28;835;-60
2024/02/14 12:53:55;;;;;;;;;;;;;;;9.54;94.43;99674.16;5073372;28;847;-59
2024/02/14 12:56:21;;;;;;;;;;;;;;;9.43;96.86;99674.19;5073161;28;861;-61
2024/02/14 12:58:48;;;;;;;;;;;;;;;9.47;96.87;99674.94;5073197;28;883;-60
2024/02/14 13:01:17;;;;;;;;;;;;;;;9.31;97.17;99685.63;5073002;28;918;-60
2024/02/14 13:03:45;;;;;;;;;;;;;;;9.24;99.18;99685.63;5073254;28;1918;-60
2024/02/14 13:06:12;;;;;;;;;;;;;;;9.22;100.00;99693.50;5072965;28;883;-60
2024/02/14 13:08:39;;;;;;;;;;;;;;;9.25;100.00;99685.25;5073063;28;905;-61
2024/02/14 13:11:08;;;;;;;;;;;;;;;9.20;100.00;99691.16;5072944;28;887;-61
2024/02/14 13:13:36;;;;;;;;;;;;;;;9.11;100.00;99694.34;5072877;28;877;-61
2024/02/14 13:16:02;;;;;;;;;;;;;;;8.95;100.00;99696.69;5072841;28;820;-62
2024/02/14 13:18:29;;;;;;;;;;;;;;;8.88;100.00;99696.69;5072728;28;832;-60
2024/02/14 13:20:59;;;;;;;;;;;;;;;8.90;100.00;99697.88;5073121;28;835;-61
2024/02/14 13:23:28;;;;;;;;;;;;;;;8.97;100.00;99711.66;5072570;28;2418;-61
2024/02/14 13:25:55;;;;;;;;;;;;;;;8.89;100.00;99699.03;5072700;28;827;-59
2024/02/14 13:28:21;;;;;;;;;;;;;;;8.94;100.00;99684.06;5072486;28;1004;-60
2024/02/14 13:30:48;;;;;;;;;;;;;;;9.05;100.00;99697.88;5072682;28;902;-60
2024/02/14 13:33:15;;;;;;;;;;;;;;;9.03;100.00;99689.22;5072402;28;890;-59
2024/02/14 13:35:41;;;;;;;;;;;;;;;9.04;100.00;99699.81;5072562;28;975;-59
2024/02/14 13:38:11;;;;;;;;;;;;;;;9.04;100.00;99697.06;5054450;28;1385;-59
2024/02/14 13:40:38;;;;;;;;;;;;;;;9.28;100.00;99692.75;5072400;28;1298;-59
2024/02/14 13:43:05;;;;;;;;;;;;;;;9.11;99.72;99710.06;5071896;28;1894;-59
2024/02/14 13:45:40;;;;;;;;;;;;;;;9.07;100.00;99718.34;5072434;28;1222;-59
2024/02/14 13:48:07;;;;;;;;;;;;;;;9.12;99.92;99708.91;5072002;28;1291;-59
2024/02/14 13:50:34;;;;;;;;;;;;;;;8.82;100.00;99715.59;5072229;28;835;-59
2024/02/14 13:53:01;;;;;;;;;;;;;;;8.78;100.00;99717.53;5072134;28;879;-59
2024/02/14 13:55:27;;;;;;;;;;;;;;;8.74;100.00;99711.25;5072095;28;792;-58
2024/02/14 13:57:54;;;;;;;;;;;;;;;8.69;100.00;99736.44;5072182;28;871;-59
2024/02/14 14:00:21;;;;;;;;;;;;;;;8.59;100.00;99722.25;5072301;28;882;-58
2024/02/14 14:02:48;;;;;;;;;;;;;;;8.50;100.00;99732.84;5072077;28;1913;-59
2024/02/14 14:05:14;;;;;;;;;;;;;;;8.42;100.00;99738.72;5071995;28;929;-59
2024/02/14 14:07:41;;;;;;;;;;;;;;;8.55;100.00;99735.22;5071968;28;895;-59
2024/02/14 14:10:09;;;;;;;;;;;;;;;8.63;100.00;99749.81;5072060;28;882;-59
2024/02/14 14:12:36;;;;;;;;;;;;;;;8.59;100.00;99754.53;5071963;28;832;-59
2024/02/14 14:15:04;;;;;;;;;;;;;;;8.42;100.00;99747.00;5071900;28;878;-59
2024/02/14 14:17:31;;;;;;;;;;;;;;;8.38;100.00;99750.50;5071819;28;930;-59
2024/02/14 14:19:59;;;;;;;;;;;;;;;8.34;100.00;99766.22;5071868;28;844;-59
2024/02/14 14:22:28;;;;;;;;;;;;;;;8.27;100.00;99770.91;5071768;28;853;-59
2024/02/14 14:24:55;;;;;;;;;;;;;;;8.15;100.00;99770.09;5071751;28;1886;-59
2024/02/14 14:27:22;;;;;;;;;;;;;;;8.10;100.00;99775.16;5071621;28;899;-59
2024/02/14 14:29:49;;;;;;;;;;;;;;;8.00;100.00;99784.16;5071704;28;886;-59
2024/02/14 14:32:18;;;;;;;;;;;;;;;7.99;100.00;99775.13;5071752;28;869;-60
2024/02/14 14:34:45;;;;;;;;;;;;;;;8.07;100.00;99781.47;5071750;28;902;-60
2024/02/14 14:37:12;;;;;;;;;;;;;;;8.11;100.00;99768.50;5071662;28;828;-59
2024/02/14 14:39:38;;;;;;;;;;;;;;;8.15;100.00;99780.28;5071606;28;862;-59
2024/02/14 14:42:07;;;;;;;;;;;;;;;8.14;100.00;99787.00;5071674;28;894;-59
2024/02/14 14:44:34;;;;;;;;;;;;;;;8.04;100.00;99782.22;5071356;28;1941;-59
2024/02/14 14:47:01;;;;;;;;;;;;;;;7.95;100.00;99785.31;5071100;28;1223;-59
2024/02/14 14:49:28;;;;;;;;;;;;;;;8.00;100.00;99786.91;5071520;28;875;-59
2024/02/14 14:51:57;;;;;;;;;;;;;;;7.92;100.00;99784.13;5071477;28;900;-59
2024/02/14 14:54:22;;;;;;;;;;;;;;;7.88;100.00;99777.81;5071643;28;925;-58
2024/02/14 14:56:53;;;;;;;;;;;;;;;7.81;100.00;99797.03;5075540;28;907;-59
2024/02/14 14:59:19;;;;;;;;;;;;;;;7.67;100.00;99792.22;5075513;28;804;-59
2024/02/14 15:01:46;;;;;;;;;;;;;;;7.60;100.00;99792.19;5075542;28;816;-59
2024/02/14 15:04:13;;;;;;;;;;;;;;;7.49;100.00;99794.88;5075268;28;1910;-60
2024/02/14 15:06:41;;;;;;;;;;;;;;;7.48;100.00;99795.25;5075426;28;887;-59
2024/02/14 15:09:08;;;;;;;;;;;;;;;7.47;100.00;99788.97;5075159;28;950;-59
2024/02/14 15:11:35;;;;;;;;;;;;;;;7.51;100.00;99803.53;5075219;28;878;-58
2024/02/14 15:14:01;;;;;;;;;;;;;;;7.50;100.00;99803.91;5075131;28;835;-60
2024/02/14 15:16:28;;;;;;;;;;;;;;;7.50;100.00;99801.94;5075004;28;887;-60
2024/02/14 15:18:55;;;;;;;;;;;;;;;7.56;100.00;99805.13;5075318;28;981;-59
2024/02/14 15:21:22;;;;;;;;;;;;;;;7.49;100.00;99805.88;5075071;28;812;-60
2024/02/14 15:23:48;;;;;;;;;;;;;;;7.43;100.00;99801.09;5074942;28;1886;-60
2024/02/14 15:26:17;;;;;;;;;;;;;;;7.33;100.00;99806.13;5075021;28;878;-60
2024/02/14 15:28:45;;;;;;;;;;;;;;;7.24;100.00;99804.88;5074891;28;907;-60
2024/02/14 15:33:56;;;;;;;;;;;;;;;7.12;100.00;99805.94;5075356;28;598;-60
2024/02/14 15:36:23;;;;;;;;;;;;;;;7.07;100.00;99828.28;5074799;28;840;-60
2024/02/14 15:38:52;;;;;;;;;;;;;;;7.09;100.00;99810.22;5074658;28;843;-59
2024/02/14 15:41:19;;;;;;;;;;;;;;;7.11;100.00;99829.09;5074661;28;871;-59
2024/02/14 15:43:46;;;;;;;;;;;;;;;7.11;100.00;99827.13;5074484;28;1943;-59
2024/02/14 15:46:13;;;;;;;;;;;;;;;7.21;100.00;99839.41;5074570;28;1554;-59
2024/02/14 15:48:41;;;;;;;;;;;;;;;7.23;100.00;99825.28;5074254;28;1450;-59
2024/02/14 15:51:08;;;;;;;;;;;;;;;7.21;100.00;99846.84;5074552;28;890;-59
2024/02/14 15:53:35;;;;;;;;;;;;;;;7.16;100.00;99845.25;5074356;28;970;-59
2024/02/14 15:56:02;;;;;;;;;;;;;;;7.08;100.00;99841.66;5074566;28;808;-59
2024/02/14 15:58:29;;;;;;;;;;;;;;;7.09;100.00;99856.19;5074509;28;961;-59
2024/02/14 16:00:57;;;;;;;;;;;;;;;7.16;100.00;99858.97;5074336;28;879;-59
2024/02/14 16:03:24;;;;;;;;;;;;;;;7.23;100.00;99867.28;5074352;28;1910;-59
2024/02/14 16:05:51;;;;;;;;;;;;;;;7.30;100.00;99880.34;5073710;28;863;-59
2024/02/14 16:08:17;;;;;;;;;;;;;;;7.26;100.00;99874.81;5056229;28;737;-59
2024/02/14 16:10:44;;;;;;;;;;;;;;;7.21;100.00;99888.91;5074073;28;833;-59
2024/02/14 16:13:11;;;;;;;;;;;;;;;7.19;100.00;99888.47;5074355;28;903;-59
2024/02/14 16:15:38;;;;;;;;;;;;;;;7.23;100.00;99899.50;5074131;28;855;-59
2024/02/14 16:18:05;;;;;;;;;;;;;;;7.26;100.00;99901.50;5074031;28;855;-59
2024/02/14 16:20:32;;;;;;;;;;;;;;;7.26;100.00;99907.00;5074055;28;879;-59
2024/02/14 16:22:59;;;;;;;;;;;;;;;7.21;100.00;99902.66;5073861;28;1890;-58
2024/02/14 16:25:29;;;;;;;;;;;;;;;7.23;100.00;99902.25;5074002;28;890;-59
2024/02/14 16:27:57;;;;;;;;;;;;;;;7.21;100.00;99907.34;5074197;28;1221;-59
2024/02/14 16:30:24;;;;;;;;;;;;;;;7.14;100.00;99919.03;5074408;28;835;-59
2024/02/14 16:32:51;;;;;;;;;;;;;;;7.08;100.00;99915.03;5074184;28;1206;-59
2024/02/14 16:35:16;;;;;;;;;;;;;;;7.00;100.00;99905.94;5074384;28;859;-59
2024/02/14 16:37:43;;;;;;;;;;;;;;;6.94;100.00;99913.72;5073816;28;851;-59
2024/02/14 16:40:09;;;;;;;;;;;;;;;6.96;100.00;99905.13;5073606;28;860;-59
2024/02/14 16:42:36;;;;;;;;;;;;;;;6.99;100.00;99911.81;5073589;28;895;-59
2024/02/14 16:45:03;;;;;;;;;;;;;;;7.00;100.00;99922.44;5073590;28;1963;-59
2024/02/14 16:47:30;;;;;;;;;;;;;;;6.96;100.00;99921.59;5073032;28;1247;-59
2024/02/14 16:49:57;;;;;;;;;;;;;;;6.90;100.00;99929.38;5073318;28;931;-59
2024/02/14 16:52:24;;;;;;;;;;;;;;;6.93;100.00;99922.34;5073531;28;839;-59
2024/02/14 16:54:51;;;;;;;;;;;;;;;6.90;99.52;99915.63;5073312;28;876;-59
2024/02/14 16:57:18;;;;;;;;;;;;;;;6.91;99.10;99925.47;5073207;28;895;-59
2024/02/14 16:59:45;;;;;;;;;;;;;;;6.84;99.46;99922.63;5073168;28;840;-58
2024/02/14 17:02:15;;;;;;;;;;;;;;;6.84;98.02;99930.09;5073300;28;922;-58
2024/02/14 17:04:42;;;;;;;;;;;;;;;6.84;97.54;99925.38;5073171;28;1910;-59
2024/02/14 17:07:14;;;;;;;;;;;;;;;6.88;97.93;99928.97;5073211;28;925;-57
2024/02/14 17:09:42;;;;;;;;;;;;;;;6.94;96.62;99930.22;5073061;28;863;-58
2024/02/14 17:12:08;;;;;;;;;;;;;;;6.95;94.71;99937.28;5072887;28;864;-58
2024/02/14 17:14:37;;;;;;;;;;;;;;;7.02;92.94;99928.34;5072836;28;898;-59
2024/02/14 17:17:04;;;;;;;;;;;;;;;7.05;93.68;99944.06;5072356;28;942;-59
2024/02/14 17:19:31;;;;;;;;;;;;;;;7.04;91.87;99920.53;5072496;28;894;-59
2024/02/14 17:21:57;;;;;;;;;;;;;;;7.06;91.21;99931.94;5072805;28;812;-59
2024/02/14 17:24:24;;;;;;;;;;;;;;;7.01;91.64;99940.50;5072609;28;1890;-60
2024/02/14 17:26:51;;;;;;;;;;;;;;;7.02;91.08;99928.34;5072717;28;859;-58
2024/02/14 17:29:18;;;;;;;;;;;;;;;6.96;91.75;99929.84;5072485;28;887;-59
2024/02/14 17:31:45;;;;;;;;;;;;;;;6.89;92.25;99940.72;5072660;28;863;-59
2024/02/14 17:34:11;;;;;;;;;;;;;;;6.77;93.48;99939.03;5072516;28;812;-59
2024/02/14 17:36:38;;;;;;;;;;;;;;;6.71;93.59;99937.78;5072378;28;966;-59
2024/02/14 17:39:05;;;;;;;;;;;;;;;6.73;93.66;99933.50;5072498;28;832;-59
2024/02/14 17:41:33;;;;;;;;;;;;;;;6.76;91.60;99945.69;5072297;28;838;-59
2024/02/14 17:44:04;;;;;;;;;;;;;;;6.81;90.04;99925.34;5072530;28;1961;-59
2024/02/14 17:46:30;;;;;;;;;;;;;;;6.81;90.50;99933.59;5072524;28;1286;-60
2024/02/14 17:48:57;;;;;;;;;;;;;;;6.79;90.17;99939.47;5072612;28;847;-59
2024/02/14 17:51:27;;;;;;;;;;;;;;;6.84;89.16;99947.34;5072244;28;961;-59
2024/02/14 17:53:54;;;;;;;;;;;;;;;6.85;87.89;99948.97;5054220;28;892;-59
2024/02/14 17:56:21;;;;;;;;;;;;;;;6.88;88.30;99939.16;5072042;28;953;-59
2024/02/14 17:58:48;;;;;;;;;;;;;;;6.85;87.91;99932.47;5054067;28;1440;-59
2024/02/14 18:01:15;;;;;;;;;;;;;;;6.79;88.34;99961.44;5072130;28;808;-59
2024/02/14 18:03:42;;;;;;;;;;;;;;;6.80;88.73;99949.25;5071864;28;1914;-59
2024/02/14 18:06:09;;;;;;;;;;;;;;;6.80;88.65;99937.50;5072074;28;851;-59
2024/02/14 18:08:35;;;;;;;;;;;;;;;6.80;88.60;99938.28;5071957;28;839;-58
2024/02/14 18:11:02;;;;;;;;;;;;;;;6.82;88.49;99940.66;5071972;28;900;-59
2024/02/14 18:13:29;;;;;;;;;;;;;;;6.82;88.27;99935.16;5072133;28;868;-60
2024/02/14 18:15:56;;;;;;;;;;;;;;;6.73;88.98;99936.22;5071982;28;795;-59
2024/02/14 18:18:23;;;;;;;;;;;;;;;6.79;88.24;99930.44;5071905;28;878;-59
2024/02/14 18:20:50;;;;;;;;;;;;;;;6.76;88.39;99937.44;5071796;28;804;-58
2024/02/14 18:23:17;;;;;;;;;;;;;;;6.67;90.05;99940.47;5071894;28;1890;-59
2024/02/14 18:25:44;;;;;;;;;;;;;;;6.65;90.32;99931.81;5071930;28;831;-59
2024/02/14 18:28:10;;;;;;;;;;;;;;;6.60;91.06;99936.84;5071776;28;836;-59
2024/02/14 18:30:37;;;;;;;;;;;;;;;6.63;90.28;99917.66;5071648;28;815;-59
2024/02/14 18:33:04;;;;;;;;;;;;;;;6.62;90.06;99923.53;5071711;28;913;-60
2024/02/14 18:35:30;;;;;;;;;;;;;;;6.64;89.98;99924.75;5071532;28;852;-59
2024/02/14 18:37:58;;;;;;;;;;;;;;;6.62;90.66;99920.78;5071872;28;875;-59
2024/02/14 18:40:25;;;;;;;;;;;;;;;6.52;90.59;99895.56;5071568;28;883;-59
2024/02/14 18:42:51;;;;;;;;;;;;;;;6.51;91.75;99907.72;5071649;28;1954;-59
2024/02/14 18:45:17;;;;;;;;;;;;;;;6.49;92.46;99910.03;5053923;28;1073;-59
2024/02/14 18:47:44;;;;;;;;;;;;;;;6.49;91.72;99915.53;5071239;28;1280;-59
2024/02/14 18:50:10;;;;;;;;;;;;;;;6.56;91.48;99911.28;5071597;28;832;-58
2024/02/14 18:52:38;;;;;;;;;;;;;;;6.55;90.96;99905.03;5071507;28;795;-58
2024/02/14 18:55:05;;;;;;;;;;;;;;;6.59;89.99;99910.53;5071524;28;917;-58
2024/02/14 18:57:30;;;;;;;;;;;;;;;6.46;92.30;99910.75;5071562;28;856;-58
2024/02/14 18:59:59;;;;;;;;;;;;;;;6.46;90.88;99912.72;5071607;28;820;-58
2024/02/14 19:02:26;;;;;;;;;;;;;;;6.53;90.59;99907.34;5071491;28;855;-59
2024/02/14 19:04:52;;;;;;;;;;;;;;;6.50;90.15;99886.09;5071438;28;2004;-59
2024/02/14 19:07:19;;;;;;;;;;;;;;;6.51;89.80;99895.94;5071441;28;815;-58
2024/02/14 19:09:46;;;;;;;;;;;;;;;6.50;90.04;99916.31;5071422;28;830;-58
2024/02/14 19:12:13;;;;;;;;;;;;;;;6.50;89.61;99917.09;5071458;28;824;-57
2024/02/14 19:14:42;;;;;;;;;;;;;;;6.48;90.38;99899.41;5071312;28;953;-58
2024/02/14 19:17:09;;;;;;;;;;;;;;;6.46;89.86;99904.50;5071265;28;859;-58
2024/02/14 19:19:36;;;;;;;;;;;;;;;6.39;91.02;99904.41;5071290;28;823;-57
2024/02/14 19:22:04;;;;;;;;;;;;;;;6.32;91.25;99894.91;5071601;28;816;-58
2024/02/14 19:24:30;;;;;;;;;;;;;;;6.29;91.61;99909.38;5071015;28;1961;-57
2024/02/14 19:26:57;;;;;;;;;;;;;;;6.27;92.50;99914.44;5071318;28;820;-58
2024/02/14 19:29:24;;;;;;;;;;;;;;;6.28;92.29;99927.00;5071121;28;906;-58
2024/02/14 19:31:51;;;;;;;;;;;;;;;6.29;92.43;99909.38;5071193;28;874;-58
2024/02/14 19:34:18;;;;;;;;;;;;;;;6.26;92.58;99904.63;5071427;28;820;-59
2024/02/14 19:36:45;;;;;;;;;;;;;;;6.19;93.29;99921.00;5071067;28;926;-59
2024/02/14 19:39:14;;;;;;;;;;;;;;;6.15;92.81;99895.44;5071207;28;894;-59
2024/02/14 19:41:41;;;;;;;;;;;;;;;6.24;91.21;99906.94;5073040;28;927;-59
2024/02/14 19:44:07;;;;;;;;;;;;;;;6.22;91.58;99914.75;5074619;28;1898;-59
2024/02/14 19:46:33;;;;;;;;;;;;;;;6.18;91.70;99932.34;5074185;28;1189;-58
2024/02/14 19:49:00;;;;;;;;;;;;;;;6.12;92.65;99920.88;5074617;28;891;-60
2024/02/14 19:51:29;;;;;;;;;;;;;;;6.07;92.88;99905.53;5074496;28;915;-59
2024/02/14 19:53:56;;;;;;;;;;;;;;;6.11;92.22;99927.53;5074426;28;919;-58
2024/02/14 19:56:23;;;;;;;;;;;;;;;6.05;92.98;99931.75;5074447;28;828;-60
2024/02/14 19:58:49;;;;;;;;;;;;;;;6.04;92.80;99899.97;5074292;28;903;-58
2024/02/14 20:01:16;;;;;;;;;;;;;;;6.04;92.33;99941.13;5074357;28;907;-58
2024/02/14 20:03:43;;;;;;;;;;;;;;;6.07;92.41;99904.72;5074201;28;1905;-58
2024/02/14 20:06:10;;;;;;;;;;;;;;;6.01;92.57;99912.47;5074309;28;864;-59
2024/02/14 20:08:39;;;;;;;;;;;;;;;5.97;92.88;99921.81;5074238;28;851;-59
2024/02/14 20:11:08;;;;;;;;;;;;;;;6.01;91.88;99920.72;5074395;28;922;-59
2024/02/14 20:13:38;;;;;;;;;;;;;;;5.97;92.33;99900.66;5074279;28;857;-59
2024/02/14 20:16:05;;;;;;;;;;;;;;;5.97;91.96;99908.09;5074403;28;808;-58
2024/02/14 20:18:31;;;;;;;;;;;;;;;6.02;92.00;99918.78;5073979;28;862;-58
2024/02/14 20:20:58;;;;;;;;;;;;;;;5.97;92.27;99897.13;5074119;28;904;-58
2024/02/14 20:23:24;;;;;;;;;;;;;;;5.91;93.21;99911.13;5073786;28;1890;-59
2024/02/14 20:25:51;;;;;;;;;;;;;;;5.95;92.93;99877.50;5073841;28;892;-58
2024/02/14 20:28:17;;;;;;;;;;;;;;;5.88;93.77;99883.66;5073847;28;959;-59